DEZFE EDDC-EDDC

Flight info

Callsign DEZFE
Flight time 0h 15m
Altitude
Route
Aircraft DA40

Departure

Time 2026-05-07 19:27
Airport Dresden Airport (EDDC)

Arrival

Time 2026-05-07 19:43
Airport Dresden Airport (EDDC)
Time Latitude Longitude Altitude Speed Heading
2026-05-07 19:19 51.12350 13.75911 755 ft 0 kts 40°
2026-05-07 19:21 51.12350 13.75910 755 ft 0 kts 41°
2026-05-07 19:23 51.12350 13.75911 755 ft 1 kts 49°
2026-05-07 19:23 51.12338 13.76007 752 ft 9 kts 78°
2026-05-07 19:23 51.12382 13.76025 753 ft 10 kts 304°
2026-05-07 19:24 51.12434 13.75926 757 ft 13 kts 303°
2026-05-07 19:24 51.12409 13.75863 756 ft 10 kts 217°
2026-05-07 19:24 51.12379 13.75726 758 ft 17 kts 292°
2026-05-07 19:24 51.12406 13.75620 758 ft 0 kts 292°
2026-05-07 19:25 51.12407 13.75616 758 ft 0 kts 295°
2026-05-07 19:25 51.12408 13.75614 758 ft 1 kts 294°
2026-05-07 19:25 51.12408 13.75612 758 ft 0 kts 294°
2026-05-07 19:26 51.12410 13.75607 756 ft 3 kts 289°
2026-05-07 19:26 51.12466 13.75508 758 ft 18 kts 339°
2026-05-07 19:26 51.12589 13.75629 758 ft 42 kts 42°
2026-05-07 19:26 51.12931 13.76123 820 ft 79 kts 39°
2026-05-07 19:27 51.13364 13.76698 1061 ft 82 kts 38°
2026-05-07 19:27 51.13807 13.77320 1276 ft 89 kts 39°
2026-05-07 19:27 51.14276 13.77956 1551 ft 87 kts 37°
2026-05-07 19:27 51.14759 13.78587 1755 ft 95 kts 33°
2026-05-07 19:28 51.15442 13.78685 1786 ft 110 kts 336°
2026-05-07 19:28 51.16006 13.77809 1855 ft 118 kts 313°
2026-05-07 19:28 51.16465 13.76691 1842 ft 124 kts 287°
2026-05-07 19:28 51.16295 13.75337 1778 ft 135 kts 236°
2026-05-07 19:29 51.15587 13.74365 1754 ft 133 kts 218°
2026-05-07 19:29 51.14863 13.73535 1736 ft 122 kts 216°
2026-05-07 19:29 51.14204 13.72772 1698 ft 116 kts 220°
2026-05-07 19:29 51.13597 13.72038 1658 ft 106 kts 219°
2026-05-07 19:30 51.13010 13.71379 1551 ft 96 kts 214°
2026-05-07 19:30 51.12406 13.71284 1454 ft 85 kts 153°
2026-05-07 19:30 51.12000 13.71877 1346 ft 76 kts 127°
2026-05-07 19:30 51.11627 13.72461 1178 ft 75 kts 131°
2026-05-07 19:31 51.11326 13.73097 1042 ft 69 kts 99°
2026-05-07 19:31 51.11391 13.73825 933 ft 72 kts 66°
2026-05-07 19:31 51.11738 13.74464 913 ft 80 kts 39°
2026-05-07 19:31 51.12167 13.75061 894 ft 82 kts 39°
2026-05-07 19:32 51.12570 13.75612 772 ft 72 kts 38°
2026-05-07 19:32 51.12929 13.76098 752 ft 71 kts 45°
2026-05-07 19:32 51.13304 13.76633 946 ft 69 kts 40°
2026-05-07 19:32 51.13666 13.77132 1112 ft 71 kts 38°
2026-05-07 19:33 51.14044 13.77669 1308 ft 72 kts 39°
2026-05-07 19:33 51.14429 13.78234 1485 ft 78 kts 41°
2026-05-07 19:33 51.14937 13.78436 1651 ft 84 kts 340°
2026-05-07 19:33 51.15361 13.77722 1730 ft 95 kts 309°
2026-05-07 19:34 51.15758 13.76862 1780 ft 100 kts 309°
2026-05-07 19:34 51.16027 13.75832 1756 ft 109 kts 266°
2026-05-07 19:34 51.15573 13.74876 1739 ft 112 kts 220°
2026-05-07 19:34 51.14962 13.74124 1721 ft 112 kts 219°
2026-05-07 19:35 51.14348 13.73386 1718 ft 110 kts 219°
2026-05-07 19:35 51.13735 13.72662 1712 ft 107 kts 216°
2026-05-07 19:35 51.13175 13.71955 1665 ft 100 kts 221°
2026-05-07 19:35 51.12680 13.71264 1651 ft 92 kts 234°
2026-05-07 19:36 51.12577 13.70348 1655 ft 80 kts 292°
2026-05-07 19:36 51.12965 13.69855 1659 ft 79 kts 356°
2026-05-07 19:36 51.13452 13.70237 1692 ft 85 kts 52°
2026-05-07 19:36 51.13522 13.71185 1718 ft 96 kts 109°
2026-05-07 19:37 51.12991 13.71799 1751 ft 102 kts 178°
2026-05-07 19:37 51.12436 13.71199 1745 ft 102 kts 258°
2026-05-07 19:37 51.12695 13.70282 1748 ft 93 kts 333°
2026-05-07 19:37 51.13307 13.70380 1732 ft 95 kts 37°
2026-05-07 19:38 51.13600 13.71301 1769 ft 98 kts 86°
2026-05-07 19:38 51.13299 13.72286 1750 ft 108 kts 143°
2026-05-07 19:38 51.12575 13.72344 1718 ft 111 kts 214°
2026-05-07 19:38 51.12115 13.71391 1708 ft 109 kts 238°
2026-05-07 19:39 51.11613 13.70536 1741 ft 103 kts 239°
2026-05-07 19:39 51.11564 13.69502 1767 ft 93 kts 297°
2026-05-07 19:39 51.12066 13.69016 1754 ft 92 kts 12°
2026-05-07 19:39 51.12398 13.69429 1766 ft 96 kts 58°
2026-05-07 19:40 51.12255 13.70819 1768 ft 108 kts 134°
2026-05-07 19:40 51.11563 13.71059 1737 ft 106 kts 205°
2026-05-07 19:40 51.11342 13.70149 1680 ft 93 kts 312°
2026-05-07 19:40 51.11918 13.70155 1643 ft 89 kts 36°
2026-05-07 19:41 51.11980 13.71097 1522 ft 102 kts 115°
2026-05-07 19:41 51.11609 13.72028 1492 ft 97 kts 128°
2026-05-07 19:41 51.11142 13.72802 1390 ft 94 kts 132°
2026-05-07 19:41 51.10970 13.73502 1207 ft 82 kts 31°
2026-05-07 19:42 51.11387 13.74006 1112 ft 68 kts 39°
2026-05-07 19:42 51.11721 13.74455 1054 ft 63 kts 36°
2026-05-07 19:42 51.12069 13.74927 950 ft 67 kts 37°
2026-05-07 19:42 51.12423 13.75407 784 ft 66 kts 38°
2026-05-07 19:43 51.12675 13.75766 758 ft 22 kts 52°
2026-05-07 19:43 51.12657 13.75911 757 ft 15 kts 135°
2026-05-07 19:43 51.12615 13.75987 756 ft 7 kts 132°
2026-05-07 19:43 51.12601 13.76013 752 ft 2 kts 130°
2026-05-07 19:44 51.12592 13.76028 755 ft 8 kts 130°
2026-05-07 19:44 51.12524 13.76153 754 ft 17 kts 131°
2026-05-07 19:44 51.12453 13.76154 752 ft 14 kts 226°
2026-05-07 19:44 51.12372 13.76046 750 ft 16 kts 203°
2026-05-07 19:45 51.12352 13.75950 754 ft 10 kts 30°